sensor_id;sensor_type;location;lat;lon;timestamp;pressure;altitude;pressure_sealevel;temperature;humidity
6032;BME280;3044;43.232;27.972;2023-01-25T00:00:28;45212.84;;;-143.84;73.88
6032;BME280;3044;43.232;27.972;2023-01-25T00:02:57;45229.97;;;-143.84;73.85
6032;BME280;3044;43.232;27.972;2023-01-25T00:05:24;45226.16;;;-143.84;73.96
6032;BME280;3044;43.232;27.972;2023-01-25T00:07:51;45209.03;;;-143.84;74.18
6032;BME280;3044;43.232;27.972;2023-01-25T00:10:19;45237.59;;;-143.84;73.58
6032;BME280;3044;43.232;27.972;2023-01-25T00:12:46;45220.44;;;-143.84;74.24
6032;BME280;3044;43.232;27.972;2023-01-25T00:15:13;45197.59;;;-143.84;74.11
6032;BME280;3044;43.232;27.972;2023-01-25T00:17:40;45226.16;;;-143.84;73.93
6032;BME280;3044;43.232;27.972;2023-01-25T00:20:10;45228.06;;;-143.84;73.36
6032;BME280;3044;43.232;27.972;2023-01-25T00:22:37;45207.13;;;-143.84;73.41
6032;BME280;3044;43.232;27.972;2023-01-25T00:25:05;45199.50;;;-143.84;73.56
6032;BME280;3044;43.232;27.972;2023-01-25T00:27:32;45203.31;;;-143.84;73.50
6032;BME280;3044;43.232;27.972;2023-01-25T00:29:59;45212.84;;;-143.84;72.82
6032;BME280;3044;43.232;27.972;2023-01-25T00:32:40;45209.03;;;-143.84;72.97
6032;BME280;3044;43.232;27.972;2023-01-25T00:35:14;45245.19;;;-143.84;72.08
6032;BME280;3044;43.232;27.972;2023-01-25T00:37:42;45243.31;;;-143.84;71.05
6032;BME280;3044;43.232;27.972;2023-01-25T00:40:15;45262.34;;;-143.84;70.08
6032;BME280;3044;43.232;27.972;2023-01-25T00:42:42;45247.09;;;-143.84;69.40
6032;BME280;3044;43.232;27.972;2023-01-25T00:45:10;45235.69;;;-143.84;68.32
6032;BME280;3044;43.232;27.972;2023-01-25T00:47:38;45266.16;;;-143.84;68.18
6032;BME280;3044;43.232;27.972;2023-01-25T00:50:06;45266.16;;;-143.84;67.80
6032;BME280;3044;43.232;27.972;2023-01-25T00:52:35;45247.09;;;-143.84;68.38
6032;BME280;3044;43.232;27.972;2023-01-25T00:55:02;45256.63;;;-143.84;68.84
6032;BME280;3044;43.232;27.972;2023-01-25T00:57:30;45245.19;;;-143.84;68.64
6032;BME280;3044;43.232;27.972;2023-01-25T00:59:57;45266.16;;;-143.84;68.69
6032;BME280;3044;43.232;27.972;2023-01-25T01:02:24;45256.63;;;-143.84;67.33
6032;BME280;3044;43.232;27.972;2023-01-25T01:04:51;45241.41;;;-143.84;67.50
6032;BME280;3044;43.232;27.972;2023-01-25T01:07:21;45258.53;;;-143.84;67.53
6032;BME280;3044;43.232;27.972;2023-01-25T01:09:49;45256.63;;;-143.84;66.88
6032;BME280;3044;43.232;27.972;2023-01-25T01:12:16;45252.81;;;-143.84;66.78
6032;BME280;3044;43.232;27.972;2023-01-25T01:14:43;45243.31;;;-143.84;66.84
6032;BME280;3044;43.232;27.972;2023-01-25T01:17:10;45249.00;;;-143.84;66.42
6032;BME280;3044;43.232;27.972;2023-01-25T01:19:37;45243.31;;;-143.84;66.58
6032;BME280;3044;43.232;27.972;2023-01-25T01:22:05;45269.97;;;-143.84;66.99
6032;BME280;3044;43.232;27.972;2023-01-25T01:24:32;45256.63;;;-143.84;67.18
6032;BME280;3044;43.232;27.972;2023-01-25T01:27:00;45239.50;;;-143.84;66.95
6032;BME280;3044;43.232;27.972;2023-01-25T01:29:27;45256.63;;;-143.84;67.18
6032;BME280;3044;43.232;27.972;2023-01-25T01:31:54;45277.56;;;-143.84;67.43
6032;BME280;3044;43.232;27.972;2023-01-25T01:34:21;45254.72;;;-143.84;67.16
6032;BME280;3044;43.232;27.972;2023-01-25T01:36:49;45254.72;;;-143.84;67.08
6032;BME280;3044;43.232;27.972;2023-01-25T01:39:16;45245.19;;;-143.84;67.30
6032;BME280;3044;43.232;27.972;2023-01-25T01:41:43;45254.72;;;-143.84;67.65
6032;BME280;3044;43.232;27.972;2023-01-25T01:44:15;45239.50;;;-143.84;67.97
6032;BME280;3044;43.232;27.972;2023-01-25T01:46:50;45256.63;;;-143.84;67.68
6032;BME280;3044;43.232;27.972;2023-01-25T01:49:22;45258.53;;;-143.84;67.47
6032;BME280;3044;43.232;27.972;2023-01-25T01:51:52;45254.72;;;-143.84;67.85
6032;BME280;3044;43.232;27.972;2023-01-25T01:54:25;45254.72;;;-143.84;67.99
6032;BME280;3044;43.232;27.972;2023-01-25T01:56:56;45268.06;;;-143.84;68.22
6032;BME280;3044;43.232;27.972;2023-01-25T01:59:27;45245.19;;;-143.84;69.03
6032;BME280;3044;43.232;27.972;2023-01-25T02:01:57;45241.41;;;-143.84;69.04
6032;BME280;3044;43.232;27.972;2023-01-25T02:04:26;45254.72;;;-143.84;69.40
6032;BME280;3044;43.232;27.972;2023-01-25T02:06:58;45269.97;;;-143.84;69.17
6032;BME280;3044;43.232;27.972;2023-01-25T02:09:28;45249.00;;;-143.84;69.54
6032;BME280;3044;43.232;27.972;2023-01-25T02:11:58;45266.16;;;-143.84;70.39
6032;BME280;3044;43.232;27.972;2023-01-25T02:14:28;45249.00;;;-143.84;70.34
6032;BME280;3044;43.232;27.972;2023-01-25T02:16:55;45262.34;;;-143.84;70.75
6032;BME280;3044;43.232;27.972;2023-01-25T02:19:30;45241.41;;;-143.84;71.08
6032;BME280;3044;43.232;27.972;2023-01-25T02:21:59;45254.72;;;-143.84;71.13
6032;BME280;3044;43.232;27.972;2023-01-25T02:24:36;45256.63;;;-143.84;71.08
6032;BME280;3044;43.232;27.972;2023-01-25T02:27:07;45231.88;;;-143.84;71.59
6032;BME280;3044;43.232;27.972;2023-01-25T02:29:34;45273.78;;;-143.84;71.79
6032;BME280;3044;43.232;27.972;2023-01-25T02:32:04;45226.16;;;-143.84;72.11
6032;BME280;3044;43.232;27.972;2023-01-25T02:34:31;45268.06;;;-143.84;72.05
6032;BME280;3044;43.232;27.972;2023-01-25T02:37:00;45250.91;;;-143.84;72.40
6032;BME280;3044;43.232;27.972;2023-01-25T02:39:28;45277.56;;;-143.84;72.56
6032;BME280;3044;43.232;27.972;2023-01-25T02:41:55;45226.16;;;-143.84;72.35
6032;BME280;3044;43.232;27.972;2023-01-25T02:44:26;45224.25;;;-143.84;72.68
6032;BME280;3044;43.232;27.972;2023-01-25T02:46:54;45245.19;;;-143.84;72.82
6032;BME280;3044;43.232;27.972;2023-01-25T02:49:22;45216.63;;;-143.84;72.88
6032;BME280;3044;43.232;27.972;2023-01-25T02:51:51;45260.44;;;-143.84;72.76
6032;BME280;3044;43.232;27.972;2023-01-25T02:54:20;45260.44;;;-143.84;73.19
6032;BME280;3044;43.232;27.972;2023-01-25T02:56:48;45239.50;;;-143.84;73.31
6032;BME280;3044;43.232;27.972;2023-01-25T02:59:15;45201.41;;;-143.84;73.92
6032;BME280;3044;43.232;27.972;2023-01-25T03:01:45;45237.59;;;-143.84;73.68
6032;BME280;3044;43.232;27.972;2023-01-25T03:04:12;45231.88;;;-143.84;73.62
6032;BME280;3044;43.232;27.972;2023-01-25T03:06:39;45258.53;;;-143.84;73.55
6032;BME280;3044;43.232;27.972;2023-01-25T03:09:09;45243.31;;;-143.84;73.87
6032;BME280;3044;43.232;27.972;2023-01-25T03:11:36;45241.41;;;-143.84;73.90
6032;BME280;3044;43.232;27.972;2023-01-25T03:14:04;45205.22;;;-143.84;74.16
6032;BME280;3044;43.232;27.972;2023-01-25T03:16:31;45243.31;;;-143.84;74.78
6032;BME280;3044;43.232;27.972;2023-01-25T03:18:59;45180.47;;;-143.84;74.98
6032;BME280;3044;43.232;27.972;2023-01-25T03:21:26;45201.41;;;-143.84;75.49
6032;BME280;3044;43.232;27.972;2023-01-25T03:23:55;45197.59;;;-143.84;75.92
6032;BME280;3044;43.232;27.972;2023-01-25T03:26:24;45205.22;;;-143.84;76.01
6032;BME280;3044;43.232;27.972;2023-01-25T03:28:51;45186.16;;;-143.84;76.33
6032;BME280;3044;43.232;27.972;2023-01-25T03:31:18;45224.25;;;-143.84;76.80
6032;BME280;3044;43.232;27.972;2023-01-25T03:33:45;45178.56;;;-143.84;76.71
6032;BME280;3044;43.232;27.972;2023-01-25T03:36:14;45191.88;;;-143.84;76.77
6032;BME280;3044;43.232;27.972;2023-01-25T03:38:41;45201.41;;;-143.84;76.68
6032;BME280;3044;43.232;27.972;2023-01-25T03:41:08;45182.38;;;-143.84;76.66
6032;BME280;3044;43.232;27.972;2023-01-25T03:43:37;45209.03;;;-143.84;76.87
6032;BME280;3044;43.232;27.972;2023-01-25T03:46:05;45207.13;;;-143.84;76.57
6032;BME280;3044;43.232;27.972;2023-01-25T03:48:32;45180.47;;;-143.84;76.71
6032;BME280;3044;43.232;27.972;2023-01-25T03:50:59;45153.81;;;-143.84;76.84
6032;BME280;3044;43.232;27.972;2023-01-25T03:53:29;45209.03;;;-143.84;76.99
6032;BME280;3044;43.232;27.972;2023-01-25T03:55:59;45165.22;;;-143.84;76.66
6032;BME280;3044;43.232;27.972;2023-01-25T03:58:27;45142.38;;;-143.84;76.90
6032;BME280;3044;43.232;27.972;2023-01-25T04:00:56;45140.47;;;-143.84;77.27
6032;BME280;3044;43.232;27.972;2023-01-25T04:03:24;45153.81;;;-143.84;77.49
6032;BME280;3044;43.232;27.972;2023-01-25T04:05:51;45159.50;;;-143.84;77.60
6032;BME280;3044;43.232;27.972;2023-01-25T04:08:19;45148.09;;;-143.84;78.36
6032;BME280;3044;43.232;27.972;2023-01-25T04:10:50;45083.34;;;-143.84;78.93
6032;BME280;3044;43.232;27.972;2023-01-25T04:13:18;45037.66;;;-143.84;79.74
6032;BME280;3044;43.232;27.972;2023-01-25T04:15:46;44980.53;;;-143.84;80.39
6032;BME280;3044;43.232;27.972;2023-01-25T04:18:13;44900.53;;;-143.84;81.05
6032;BME280;3044;43.232;27.972;2023-01-25T04:20:41;44772.97;;;-143.84;81.86
6032;BME280;3044;43.232;27.972;2023-01-25T04:23:08;44681.59;;;-143.84;82.55
6032;BME280;3044;43.232;27.972;2023-01-25T04:25:36;44569.25;;;-143.84;82.64
6032;BME280;3044;43.232;27.972;2023-01-25T04:28:04;44502.63;;;-143.84;82.80
6032;BME280;3044;43.232;27.972;2023-01-25T04:30:32;44485.47;;;-143.84;82.63
6032;BME280;3044;43.232;27.972;2023-01-25T04:33:02;44580.69;;;-143.84;82.44
6032;BME280;3044;43.232;27.972;2023-01-25T04:35:29;44529.28;;;-143.84;82.57
6032;BME280;3044;43.232;27.972;2023-01-25T04:37:58;44567.34;;;-143.84;82.67
6032;BME280;3044;43.232;27.972;2023-01-25T04:40:27;44517.84;;;-143.84;82.90
6032;BME280;3044;43.232;27.972;2023-01-25T04:42:54;44456.94;;;-143.84;82.87
6032;BME280;3044;43.232;27.972;2023-01-25T04:45:23;44369.34;;;-143.84;82.94
6032;BME280;3044;43.232;27.972;2023-01-25T04:47:55;44394.09;;;-143.84;82.95
6032;BME280;3044;43.232;27.972;2023-01-25T04:50:23;44352.22;;;-143.84;82.83
6032;BME280;3044;43.232;27.972;2023-01-25T04:52:50;44297.00;;;-143.84;83.14
6032;BME280;3044;43.232;27.972;2023-01-25T04:55:17;44279.88;;;-143.84;83.35
6032;BME280;3044;43.232;27.972;2023-01-25T04:57:44;44234.19;;;-143.84;83.63
6032;BME280;3044;43.232;27.972;2023-01-25T05:00:15;44247.50;;;-143.84;83.73
6032;BME280;3044;43.232;27.972;2023-01-25T05:02:44;44222.75;;;-143.84;83.50
6032;BME280;3044;43.232;27.972;2023-01-25T05:05:11;44139.00;;;-143.84;83.80
6032;BME280;3044;43.232;27.972;2023-01-25T05:07:39;44131.38;;;-143.84;83.80
6032;BME280;3044;43.232;27.972;2023-01-25T05:10:07;44053.34;;;-143.84;84.41
6032;BME280;3044;43.232;27.972;2023-01-25T05:12:35;44047.63;;;-143.84;84.34
6032;BME280;3044;43.232;27.972;2023-01-25T05:15:02;43963.88;;;-143.84;85.22
6032;BME280;3044;43.232;27.972;2023-01-25T05:17:29;43975.28;;;-143.84;84.71
6032;BME280;3044;43.232;27.972;2023-01-25T05:19:58;44013.38;;;-143.84;84.58
6032;BME280;3044;43.232;27.972;2023-01-25T05:22:25;44013.38;;;-143.84;84.27
6032;BME280;3044;43.232;27.972;2023-01-25T05:24:52;44047.63;;;-143.84;84.54
6032;BME280;3044;43.232;27.972;2023-01-25T05:27:20;44005.75;;;-143.84;84.57
6032;BME280;3044;43.232;27.972;2023-01-25T05:29:47;44059.03;;;-143.84;84.67
6032;BME280;3044;43.232;27.972;2023-01-25T05:32:16;43979.09;;;-143.84;84.65
6032;BME280;3044;43.232;27.972;2023-01-25T05:34:44;43984.81;;;-143.84;84.75
6032;BME280;3044;43.232;27.972;2023-01-25T05:37:15;43982.91;;;-143.84;84.61
6032;BME280;3044;43.232;27.972;2023-01-25T05:39:44;43971.47;;;-143.84;84.96
6032;BME280;3044;43.232;27.972;2023-01-25T05:42:13;43973.38;;;-143.84;84.94
6032;BME280;3044;43.232;27.972;2023-01-25T05:44:40;43979.09;;;-143.84;84.75
6032;BME280;3044;43.232;27.972;2023-01-25T05:47:11;44005.75;;;-143.84;84.87
6032;BME280;3044;43.232;27.972;2023-01-25T05:49:38;43979.09;;;-143.84;84.57
6032;BME280;3044;43.232;27.972;2023-01-25T05:52:05;43990.53;;;-143.84;84.49
6032;BME280;3044;43.232;27.972;2023-01-25T05:54:34;44000.03;;;-143.84;84.94
6032;BME280;3044;43.232;27.972;2023-01-25T05:57:01;43952.44;;;-143.84;84.77
6032;BME280;3044;43.232;27.972;2023-01-25T05:59:28;43975.28;;;-143.84;85.00
6032;BME280;3044;43.232;27.972;2023-01-25T06:01:55;43927.69;;;-143.84;85.37
6032;BME280;3044;43.232;27.972;2023-01-25T06:04:22;43914.38;;;-143.84;84.94
6032;BME280;3044;43.232;27.972;2023-01-25T06:06:50;43929.59;;;-143.84;85.46
6032;BME280;3044;43.232;27.972;2023-01-25T06:09:17;43891.53;;;-143.84;85.85
6032;BME280;3044;43.232;27.972;2023-01-25T06:11:45;43885.81;;;-143.84;86.00
6032;BME280;3044;43.232;27.972;2023-01-25T06:14:12;43891.53;;;-143.84;86.05
6032;BME280;3044;43.232;27.972;2023-01-25T06:16:39;43891.53;;;-143.84;86.30
6032;BME280;3044;43.232;27.972;2023-01-25T06:19:07;43887.72;;;-143.84;86.26
6032;BME280;3044;43.232;27.972;2023-01-25T06:21:34;43891.53;;;-143.84;86.54
6032;BME280;3044;43.232;27.972;2023-01-25T06:24:02;43874.41;;;-143.84;86.53
6032;BME280;3044;43.232;27.972;2023-01-25T06:26:29;43895.34;;;-143.84;86.71
6032;BME280;3044;43.232;27.972;2023-01-25T06:28:57;43893.44;;;-143.84;86.45
6032;BME280;3044;43.232;27.972;2023-01-25T06:31:24;43899.16;;;-143.84;86.70
6032;BME280;3044;43.232;27.972;2023-01-25T06:33:52;43864.88;;;-143.84;87.24
6032;BME280;3044;43.232;27.972;2023-01-25T06:36:20;43855.38;;;-143.84;87.37
6032;BME280;3044;43.232;27.972;2023-01-25T06:38:48;43868.69;;;-143.84;87.42
6032;BME280;3044;43.232;27.972;2023-01-25T06:41:15;43897.25;;;-143.84;87.44
6032;BME280;3044;43.232;27.972;2023-01-25T06:43:42;43906.75;;;-143.84;87.28
6032;BME280;3044;43.232;27.972;2023-01-25T06:46:11;43887.72;;;-143.84;87.62
6032;BME280;3044;43.232;27.972;2023-01-25T06:48:38;43922.00;;;-143.84;87.71
6032;BME280;3044;43.232;27.972;2023-01-25T06:51:08;43923.91;;;-143.84;87.95
6032;BME280;3044;43.232;27.972;2023-01-25T06:53:37;43935.31;;;-143.84;88.65
6032;BME280;3044;43.232;27.972;2023-01-25T06:56:06;43927.69;;;-143.84;88.52
6032;BME280;3044;43.232;27.972;2023-01-25T06:58:34;43942.94;;;-143.84;88.43
6032;BME280;3044;43.232;27.972;2023-01-25T07:01:04;43922.00;;;-143.84;88.70
6032;BME280;3044;43.232;27.972;2023-01-25T07:03:33;43931.50;;;-143.84;88.88
6032;BME280;3044;43.232;27.972;2023-01-25T07:06:01;43927.69;;;-143.84;88.76
6032;BME280;3044;43.232;27.972;2023-01-25T07:08:29;43918.19;;;-143.84;88.90
6032;BME280;3044;43.232;27.972;2023-01-25T07:10:59;43922.00;;;-143.84;88.80
6032;BME280;3044;43.232;27.972;2023-01-25T07:13:27;43902.97;;;-143.84;88.50
6032;BME280;3044;43.232;27.972;2023-01-25T07:15:56;43925.78;;;-143.84;88.10
6032;BME280;3044;43.232;27.972;2023-01-25T07:18:24;43910.56;;;-143.84;88.36
6032;BME280;3044;43.232;27.972;2023-01-25T07:20:53;43902.97;;;-143.84;88.39
6032;BME280;3044;43.232;27.972;2023-01-25T07:23:20;43904.84;;;-143.84;87.82
6032;BME280;3044;43.232;27.972;2023-01-25T07:25:49;43912.47;;;-143.84;88.29
6032;BME280;3044;43.232;27.972;2023-01-25T07:28:16;43895.34;;;-143.84;88.13
6032;BME280;3044;43.232;27.972;2023-01-25T07:30:44;43937.22;;;-143.84;87.90
6032;BME280;3044;43.232;27.972;2023-01-25T07:33:11;43918.19;;;-143.84;87.86
6032;BME280;3044;43.232;27.972;2023-01-25T07:35:38;43891.53;;;-143.84;87.34
6032;BME280;3044;43.232;27.972;2023-01-25T07:38:07;43895.34;;;-143.84;86.76
6032;BME280;3044;43.232;27.972;2023-01-25T07:40:34;43904.84;;;-143.84;86.91
6032;BME280;3044;43.232;27.972;2023-01-25T07:43:01;43897.25;;;-143.84;86.67
6032;BME280;3044;43.232;27.972;2023-01-25T07:45:29;43883.91;;;-143.84;86.74
6032;BME280;3044;43.232;27.972;2023-01-25T07:47:57;43891.53;;;-143.84;86.05
6032;BME280;3044;43.232;27.972;2023-01-25T07:50:27;43885.81;;;-143.84;86.18
6032;BME280;3044;43.232;27.972;2023-01-25T07:52:57;43885.81;;;-143.84;85.97
6032;BME280;3044;43.232;27.972;2023-01-25T07:55:25;43891.53;;;-143.84;86.05
6032;BME280;3044;43.232;27.972;2023-01-25T07:57:53;43889.63;;;-143.84;85.57
6032;BME280;3044;43.232;27.972;2023-01-25T08:00:21;43916.28;;;-143.84;84.69
6032;BME280;3044;43.232;27.972;2023-01-25T08:02:49;43889.63;;;-143.84;85.12
6032;BME280;3044;43.232;27.972;2023-01-25T08:05:17;43897.25;;;-143.84;85.31
6032;BME280;3044;43.232;27.972;2023-01-25T08:07:44;43902.97;;;-143.84;85.34
6032;BME280;3044;43.232;27.972;2023-01-25T08:10:11;43902.97;;;-143.84;84.43
6032;BME280;3044;43.232;27.972;2023-01-25T08:12:43;43918.19;;;-143.84;84.06
6032;BME280;3044;43.232;27.972;2023-01-25T08:15:11;43973.38;;;-143.84;83.92
6032;BME280;3044;43.232;27.972;2023-01-25T08:17:38;44097.13;;;-143.84;82.98
6032;BME280;3044;43.232;27.972;2023-01-25T08:20:07;44059.03;;;-143.84;82.92
6032;BME280;3044;43.232;27.972;2023-01-25T08:22:34;44158.03;;;-143.84;82.44
6032;BME280;3044;43.232;27.972;2023-01-25T08:25:02;44272.25;;;-143.84;81.66
6032;BME280;3044;43.232;27.972;2023-01-25T08:27:29;44178.97;;;-143.84;82.50
6032;BME280;3044;43.232;27.972;2023-01-25T08:29:57;44158.03;;;-143.84;82.63
6032;BME280;3044;43.232;27.972;2023-01-25T08:32:24;44287.50;;;-143.84;81.53
6032;BME280;3044;43.232;27.972;2023-01-25T08:34:52;44238.00;;;-143.84;81.90
6032;BME280;3044;43.232;27.972;2023-01-25T08:37:19;44388.38;;;-143.84;81.61
6032;BME280;3044;43.232;27.972;2023-01-25T08:39:46;44536.88;;;-143.84;80.93
6032;BME280;3044;43.232;27.972;2023-01-25T08:42:13;44559.72;;;-143.84;81.35
6032;BME280;3044;43.232;27.972;2023-01-25T08:44:41;44487.38;;;-143.84;81.20
6032;BME280;3044;43.232;27.972;2023-01-25T08:47:09;44611.13;;;-143.84;81.02
6032;BME280;3044;43.232;27.972;2023-01-25T08:49:36;44607.34;;;-143.84;80.62
6032;BME280;3044;43.232;27.972;2023-01-25T08:52:03;44595.91;;;-143.84;81.03
6032;BME280;3044;43.232;27.972;2023-01-25T08:54:31;44475.97;;;-143.84;81.60
6032;BME280;3044;43.232;27.972;2023-01-25T08:56:59;44523.56;;;-143.84;81.07
6032;BME280;3044;43.232;27.972;2023-01-25T08:59:26;44664.44;;;-143.84;80.50
6032;BME280;3044;43.232;27.972;2023-01-25T09:01:53;44668.25;;;-143.84;80.39
6032;BME280;3044;43.232;27.972;2023-01-25T09:04:22;44611.13;;;-143.84;80.47
6032;BME280;3044;43.232;27.972;2023-01-25T09:06:52;44635.88;;;-143.84;80.80
6032;BME280;3044;43.232;27.972;2023-01-25T09:09:20;44588.28;;;-143.84;80.50
6032;BME280;3044;43.232;27.972;2023-01-25T09:11:49;44576.88;;;-143.84;80.98
6032;BME280;3044;43.232;27.972;2023-01-25T09:14:16;44523.56;;;-143.84;81.42
6032;BME280;3044;43.232;27.972;2023-01-25T09:16:43;44495.00;;;-143.84;81.04
6032;BME280;3044;43.232;27.972;2023-01-25T09:19:10;44458.81;;;-143.84;81.64
6032;BME280;3044;43.232;27.972;2023-01-25T09:21:39;44472.16;;;-143.84;81.03
6032;BME280;3044;43.232;27.972;2023-01-25T09:24:06;44529.28;;;-143.84;81.33
6032;BME280;3044;43.232;27.972;2023-01-25T09:26:36;44460.72;;;-143.84;81.38
6032;BME280;3044;43.232;27.972;2023-01-25T09:29:04;44447.41;;;-143.84;81.15
6032;BME280;3044;43.232;27.972;2023-01-25T09:31:32;44576.88;;;-143.84;80.81
6032;BME280;3044;43.232;27.972;2023-01-25T09:34:00;44628.28;;;-143.84;81.01
6032;BME280;3044;43.232;27.972;2023-01-25T09:36:27;44561.63;;;-143.84;80.67
6032;BME280;3044;43.232;27.972;2023-01-25T09:38:55;44563.53;;;-143.84;81.27
6032;BME280;3044;43.232;27.972;2023-01-25T09:41:37;44651.13;;;-143.84;80.14
6032;BME280;3044;43.232;27.972;2023-01-25T09:44:19;44673.97;;;-143.84;80.34
6032;BME280;3044;43.232;27.972;2023-01-25T09:46:52;44675.88;;;-143.84;80.60
6032;BME280;3044;43.232;27.972;2023-01-25T09:49:30;44792.00;;;-143.84;79.59
6032;BME280;3044;43.232;27.972;2023-01-25T09:52:27;44881.50;;;-143.84;79.15
6032;BME280;3044;43.232;27.972;2023-01-25T09:55:01;44881.50;;;-143.84;79.21
6032;BME280;3044;43.232;27.972;2023-01-25T09:57:31;44883.41;;;-143.84;79.29
6032;BME280;3044;43.232;27.972;2023-01-25T10:00:02;44858.66;;;-143.84;79.07
6032;BME280;3044;43.232;27.972;2023-01-25T10:02:38;44974.81;;;-143.84;78.41
6032;BME280;3044;43.232;27.972;2023-01-25T10:05:10;44950.06;;;-143.84;78.65
6032;BME280;3044;43.232;27.972;2023-01-25T10:07:50;44953.88;;;-143.84;78.42
6032;BME280;3044;43.232;27.972;2023-01-25T10:10:25;44942.44;;;-143.84;78.48
6032;BME280;3044;43.232;27.972;2023-01-25T10:12:54;45001.47;;;-143.84;78.02
6032;BME280;3044;43.232;27.972;2023-01-25T10:15:23;44938.63;;;-143.84;78.34
6032;BME280;3044;43.232;27.972;2023-01-25T10:18:00;44925.31;;;-143.84;78.34
6032;BME280;3044;43.232;27.972;2023-01-25T10:20:34;45003.38;;;-143.84;78.05
6032;BME280;3044;43.232;27.972;2023-01-25T10:23:44;44988.13;;;-143.84;77.90
6032;BME280;3044;43.232;27.972;2023-01-25T10:26:22;44988.13;;;-143.84;77.40
6032;BME280;3044;43.232;27.972;2023-01-25T10:28:56;45028.13;;;-143.84;77.41
6032;BME280;3044;43.232;27.972;2023-01-25T10:31:31;44988.13;;;-143.84;77.60
6032;BME280;3044;43.232;27.972;2023-01-25T10:34:01;44942.44;;;-143.84;78.41
6032;BME280;3044;43.232;27.972;2023-01-25T10:36:30;44978.63;;;-143.84;78.18
6032;BME280;3044;43.232;27.972;2023-01-25T10:38:57;44951.97;;;-143.84;78.47
6032;BME280;3044;43.232;27.972;2023-01-25T10:41:34;44978.63;;;-143.84;77.86
6032;BME280;3044;43.232;27.972;2023-01-25T10:44:07;45012.88;;;-143.84;77.22
6032;BME280;3044;43.232;27.972;2023-01-25T10:46:56;45033.84;;;-143.84;77.32
6032;BME280;3044;43.232;27.972;2023-01-25T10:49:30;45012.88;;;-143.84;77.97
6032;BME280;3044;43.232;27.972;2023-01-25T10:52:12;45016.69;;;-143.84;78.13
6032;BME280;3044;43.232;27.972;2023-01-25T10:54:40;44910.06;;;-143.84;78.82
6032;BME280;3044;43.232;27.972;2023-01-25T10:57:13;44875.78;;;-143.84;79.19
6032;BME280;3044;43.232;27.972;2023-01-25T10:59:44;44712.06;;;-143.84;79.82
6032;BME280;3044;43.232;27.972;2023-01-25T11:02:38;44578.78;;;-143.84;80.64
6032;BME280;3044;43.232;27.972;2023-01-25T11:05:25;44426.47;;;-143.84;81.27
6032;BME280;3044;43.232;27.972;2023-01-25T11:07:54;44409.34;;;-143.84;81.44
6032;BME280;3044;43.232;27.972;2023-01-25T11:10:30;44251.31;;;-143.84;81.72
6032;BME280;3044;43.232;27.972;2023-01-25T11:13:31;44169.47;;;-143.84;82.15
6032;BME280;3044;43.232;27.972;2023-01-25T11:16:16;44173.25;;;-143.84;82.18
6032;BME280;3044;43.232;27.972;2023-01-25T11:18:51;44102.84;;;-143.84;82.42
6032;BME280;3044;43.232;27.972;2023-01-25T11:21:20;43984.81;;;-143.84;83.26
6032;BME280;3044;43.232;27.972;2023-01-25T11:23:59;44041.91;;;-143.84;82.87
6032;BME280;3044;43.232;27.972;2023-01-25T11:26:27;44091.41;;;-143.84;83.19
6032;BME280;3044;43.232;27.972;2023-01-25T11:29:10;44022.88;;;-143.84;83.38
6032;BME280;3044;43.232;27.972;2023-01-25T11:31:38;43948.63;;;-143.84;83.93
6032;BME280;3044;43.232;27.972;2023-01-25T11:34:09;43899.16;;;-143.84;84.27
6032;BME280;3044;43.232;27.972;2023-01-25T11:36:44;43918.19;;;-143.84;84.86
6032;BME280;3044;43.232;27.972;2023-01-25T11:39:24;43887.72;;;-143.84;85.09
6032;BME280;3044;43.232;27.972;2023-01-25T11:42:01;43851.56;;;-143.84;85.38
6032;BME280;3044;43.232;27.972;2023-01-25T11:44:58;43874.41;;;-143.84;85.48
6032;BME280;3044;43.232;27.972;2023-01-25T11:47:40;43868.69;;;-143.84;86.39
6032;BME280;3044;43.232;27.972;2023-01-25T11:50:15;43859.19;;;-143.84;86.30
6032;BME280;3044;43.232;27.972;2023-01-25T11:53:19;43908.66;;;-143.84;86.48
6032;BME280;3044;43.232;27.972;2023-01-25T11:55:54;43908.66;;;-143.84;87.14
6032;BME280;3044;43.232;27.972;2023-01-25T11:58:38;43885.81;;;-143.84;87.13
6032;BME280;3044;43.232;27.972;2023-01-25T12:01:15;43927.69;;;-143.84;87.25
6032;BME280;3044;43.232;27.972;2023-01-25T12:06:56;43933.41;;;-143.84;87.86
6032;BME280;3044;43.232;27.972;2023-01-25T12:09:37;43927.69;;;-143.84;88.14
6032;BME280;3044;43.232;27.972;2023-01-25T12:12:14;43920.09;;;-143.84;88.15
6032;BME280;3044;43.232;27.972;2023-01-25T12:15:19;43929.59;;;-143.84;87.93
6032;BME280;3044;43.232;27.972;2023-01-25T12:18:15;43929.59;;;-143.84;88.08
6032;BME280;3044;43.232;27.972;2023-01-25T12:21:03;43948.63;;;-143.84;88.73
6032;BME280;3044;43.232;27.972;2023-01-25T12:23:50;43902.97;;;-143.84;88.64
6032;BME280;3044;43.232;27.972;2023-01-25T12:26:25;43937.22;;;-143.84;88.66
6032;BME280;3044;43.232;27.972;2023-01-25T12:29:01;43918.19;;;-143.84;88.76
6032;BME280;3044;43.232;27.972;2023-01-25T12:31:36;43923.91;;;-143.84;88.71
6032;BME280;3044;43.232;27.972;2023-01-25T12:34:13;43904.84;;;-143.84;88.66
6032;BME280;3044;43.232;27.972;2023-01-25T12:36:45;43929.59;;;-143.84;88.84
6032;BME280;3044;43.232;27.972;2023-01-25T12:39:13;43922.00;;;-143.84;89.30
6032;BME280;3044;43.232;27.972;2023-01-25T12:41:46;43956.25;;;-143.84;89.61
6032;BME280;3044;43.232;27.972;2023-01-25T12:44:18;43918.19;;;-143.84;88.79
6032;BME280;3044;43.232;27.972;2023-01-25T12:46:51;43923.91;;;-143.84;87.87
6032;BME280;3044;43.232;27.972;2023-01-25T12:49:28;43927.69;;;-143.84;87.74
6032;BME280;3044;43.232;27.972;2023-01-25T12:51:58;43929.59;;;-143.84;87.82
6032;BME280;3044;43.232;27.972;2023-01-25T12:54:31;43902.97;;;-143.84;87.44
6032;BME280;3044;43.232;27.972;2023-01-25T12:57:17;43927.69;;;-143.84;88.26
6032;BME280;3044;43.232;27.972;2023-01-25T12:59:54;43908.66;;;-143.84;88.23
6032;BME280;3044;43.232;27.972;2023-01-25T13:02:57;43929.59;;;-143.84;87.65
6032;BME280;3044;43.232;27.972;2023-01-25T13:05:37;43895.34;;;-143.84;87.17
6032;BME280;3044;43.232;27.972;2023-01-25T13:08:16;43912.47;;;-143.84;86.56
6032;BME280;3044;43.232;27.972;2023-01-25T13:10:48;43872.50;;;-143.84;86.99